<?xml version="1.0" encoding="utf-8"?>
<gpx xmlns:xsi="http://www.w3.org/2001/XMLSchema-instance" xmlns:xsd="http://www.w3.org/2001/XMLSchema" version="1.1" creator="Shapelink.com" xmlns="http://www.topografix.com/GPX/1/1" xmlns:gpxtpx="http://www.garmin.com/xmlschemas/TrackPointExtension/v1">
  <metadata>
    <name>Övrigt 2.26 km, 2020-08-10</name>
    <desc></desc>
    <author><name>Marian Moron</name></author> 
    <time>2020-08-10T20:26:02Z</time>
  </metadata>
  <trk>
    <name>Övrigt 2.26 km, 2020-08-10</name>
    <trkseg>
      <trkpt lat="51.228952143903" lon="4.458350966361">
        <ele>0</ele>
        <time>2020-08-10T20:26:02Z</time>
      </trkpt>
      <trkpt lat="51.228643606164" lon="4.458355911682">
        <ele>0</ele>
        <time>2020-08-10T20:26:25Z</time>
      </trkpt>
      <trkpt lat="51.228466161341" lon="4.45821693978">
        <ele>0</ele>
        <time>2020-08-10T20:26:40Z</time>
      </trkpt>
      <trkpt lat="51.228453085577" lon="4.457827600525">
        <ele>0</ele>
        <time>2020-08-10T20:27:01Z</time>
      </trkpt>
      <trkpt lat="51.228556518223" lon="4.457621908699">
        <ele>0</ele>
        <time>2020-08-10T20:27:29Z</time>
      </trkpt>
      <trkpt lat="51.228539838242" lon="4.457586369443">
        <ele>0</ele>
        <time>2020-08-10T20:27:31Z</time>
      </trkpt>
      <trkpt lat="51.228369350396" lon="4.457280010998">
        <ele>0.6</ele>
        <time>2020-08-10T20:27:50Z</time>
      </trkpt>
      <trkpt lat="51.228246136466" lon="4.457036852079">
        <ele>0</ele>
        <time>2020-08-10T20:28:10Z</time>
      </trkpt>
      <trkpt lat="51.228277987686" lon="4.456998295339">
        <ele>0</ele>
        <time>2020-08-10T20:28:13Z</time>
      </trkpt>
      <trkpt lat="51.228109260039" lon="4.456418016402">
        <ele>0</ele>
        <time>2020-08-10T20:28:47Z</time>
      </trkpt>
      <trkpt lat="51.227886050042" lon="4.455888531779">
        <ele>2</ele>
        <time>2020-08-10T20:29:18Z</time>
      </trkpt>
      <trkpt lat="51.227821006498" lon="4.455742183805">
        <ele>2.4</ele>
        <time>2020-08-10T20:29:28Z</time>
      </trkpt>
      <trkpt lat="51.227761746465" lon="4.45548108762">
        <ele>1.6</ele>
        <time>2020-08-10T20:29:55Z</time>
      </trkpt>
      <trkpt lat="51.227714221092" lon="4.455126114155">
        <ele>0.8</ele>
        <time>2020-08-10T20:30:27Z</time>
      </trkpt>
      <trkpt lat="51.227971293965" lon="4.454864347418">
        <ele>1.4</ele>
        <time>2020-08-10T20:31:37Z</time>
      </trkpt>
      <trkpt lat="51.228312521114" lon="4.454852528939">
        <ele>1.8</ele>
        <time>2020-08-10T20:32:20Z</time>
      </trkpt>
      <trkpt lat="51.228579149353" lon="4.454831909465">
        <ele>1</ele>
        <time>2020-08-10T20:33:02Z</time>
      </trkpt>
      <trkpt lat="51.228689538976" lon="4.454808356326">
        <ele>3</ele>
        <time>2020-08-10T20:33:15Z</time>
      </trkpt>
      <trkpt lat="51.229136378065" lon="4.454929055686">
        <ele>0</ele>
        <time>2020-08-10T20:33:57Z</time>
      </trkpt>
      <trkpt lat="51.229414321869" lon="4.454835010768">
        <ele>8.8</ele>
        <time>2020-08-10T20:35:07Z</time>
      </trkpt>
      <trkpt lat="51.229530327365" lon="4.454785557558">
        <ele>7.6</ele>
        <time>2020-08-10T20:35:32Z</time>
      </trkpt>
      <trkpt lat="51.229965515613" lon="4.454971049005">
        <ele>3.2</ele>
        <time>2020-08-10T20:36:09Z</time>
      </trkpt>
      <trkpt lat="51.230194760578" lon="4.45457584242">
        <ele>0</ele>
        <time>2020-08-10T20:36:44Z</time>
      </trkpt>
      <trkpt lat="51.230222923762" lon="4.454334108424">
        <ele>3.8</ele>
        <time>2020-08-10T20:37:06Z</time>
      </trkpt>
      <trkpt lat="51.230107672637" lon="4.453639835647">
        <ele>3</ele>
        <time>2020-08-10T20:37:47Z</time>
      </trkpt>
      <trkpt lat="51.230085125326" lon="4.453500528469">
        <ele>2.6</ele>
        <time>2020-08-10T20:37:54Z</time>
      </trkpt>
      <trkpt lat="51.2299967801" lon="4.453202635743">
        <ele>0.6</ele>
        <time>2020-08-10T20:38:11Z</time>
      </trkpt>
      <trkpt lat="51.229937184791" lon="4.452479110135">
        <ele>2</ele>
        <time>2020-08-10T20:39:00Z</time>
      </trkpt>
      <trkpt lat="51.229849845393" lon="4.451916014093">
        <ele>3</ele>
        <time>2020-08-10T20:39:35Z</time>
      </trkpt>
      <trkpt lat="51.229794524853" lon="4.451459200543">
        <ele>9.6</ele>
        <time>2020-08-10T20:40:06Z</time>
      </trkpt>
      <trkpt lat="51.229755129923" lon="4.450943713693">
        <ele>2.8</ele>
        <time>2020-08-10T20:40:44Z</time>
      </trkpt>
      <trkpt lat="51.229820257286" lon="4.450809603293">
        <ele>2</ele>
        <time>2020-08-10T20:40:57Z</time>
      </trkpt>
      <trkpt lat="51.230265503814" lon="4.450701392964">
        <ele>8.2</ele>
        <time>2020-08-10T20:41:39Z</time>
      </trkpt>
      <trkpt lat="51.230449905614" lon="4.450836173916">
        <ele>2.2</ele>
        <time>2020-08-10T20:42:26Z</time>
      </trkpt>
      <trkpt lat="51.230561133427" lon="4.450703656077">
        <ele>6.8</ele>
        <time>2020-08-10T20:42:40Z</time>
      </trkpt>
      <trkpt lat="51.230672193602" lon="4.450613047738">
        <ele>11</ele>
        <time>2020-08-10T20:43:03Z</time>
      </trkpt>
      <trkpt lat="51.231130599713" lon="4.45055169223">
        <ele>2.8</ele>
        <time>2020-08-10T20:43:41Z</time>
      </trkpt>
      <trkpt lat="51.231220034586" lon="4.450600223431">
        <ele>5.6</ele>
        <time>2020-08-10T20:44:01Z</time>
      </trkpt>
      <trkpt lat="51.231226572468" lon="4.450664093509">
        <ele>5.6</ele>
        <time>2020-08-10T20:44:05Z</time>
      </trkpt>
      <trkpt lat="51.231292035107" lon="4.451079500473">
        <ele>2.6</ele>
        <time>2020-08-10T20:44:29Z</time>
      </trkpt>
      <trkpt lat="51.231316761712" lon="4.451156949229">
        <ele>2</ele>
        <time>2020-08-10T20:44:34Z</time>
      </trkpt>
      <trkpt lat="51.231378787772" lon="4.451417291043">
        <ele>0</ele>
        <time>2020-08-10T20:45:11Z</time>
      </trkpt>
      <trkpt lat="51.231477275097" lon="4.452131596561">
        <ele>0</ele>
        <time>2020-08-10T20:45:50Z</time>
      </trkpt>
      <trkpt lat="51.231480208762" lon="4.452167303455">
        <ele>0</ele>
        <time>2020-08-10T20:45:52Z</time>
      </trkpt>
      <trkpt lat="51.231509796869" lon="4.452449941123">
        <ele>0</ele>
        <time>2020-08-10T20:46:07Z</time>
      </trkpt>
      <trkpt lat="51.231641225061" lon="4.453145806461">
        <ele>0</ele>
        <time>2020-08-10T20:46:45Z</time>
      </trkpt>
      <trkpt lat="51.231718254722" lon="4.453473538751">
        <ele>0</ele>
        <time>2020-08-10T20:47:01Z</time>
      </trkpt>
      <trkpt lat="51.231745076802" lon="4.45363287867">
        <ele>0.6</ele>
        <time>2020-08-10T20:47:09Z</time>
      </trkpt>
      <trkpt lat="51.231755805634" lon="4.453778975187">
        <ele>1.2</ele>
        <time>2020-08-10T20:47:22Z</time>
      </trkpt>
      <trkpt lat="51.231722278034" lon="4.453865560214">
        <ele>1.6</ele>
        <time>2020-08-10T20:47:30Z</time>
      </trkpt>
      <trkpt lat="51.231290191089" lon="4.454015428586">
        <ele>0</ele>
        <time>2020-08-10T20:48:11Z</time>
      </trkpt>
      <trkpt lat="51.231159517268" lon="4.454045016693">
        <ele>0</ele>
        <time>2020-08-10T20:48:24Z</time>
      </trkpt>
      <trkpt lat="51.23112330746" lon="4.454378532494">
        <ele>0</ele>
        <time>2020-08-10T20:48:53Z</time>
      </trkpt>
      <trkpt lat="51.231234870549" lon="4.455081941542">
        <ele>0</ele>
        <time>2020-08-10T20:49:35Z</time>
      </trkpt>
      <trkpt lat="51.231267308502" lon="4.455387294159">
        <ele>2.4</ele>
        <time>2020-08-10T20:49:59Z</time>
      </trkpt>
      <trkpt lat="51.231342577964" lon="4.456088691551">
        <ele>7.4</ele>
        <time>2020-08-10T20:50:39Z</time>
      </trkpt>
      <trkpt lat="51.231297818618" lon="4.456582050185">
        <ele>6.6</ele>
        <time>2020-08-10T20:51:14Z</time>
      </trkpt>
      <trkpt lat="51.231304524138" lon="4.456629910834">
        <ele>8.4</ele>
        <time>2020-08-10T20:51:17Z</time>
      </trkpt>
      <trkpt lat="51.231256914946" lon="4.457342959067">
        <ele>17.8</ele>
        <time>2020-08-10T20:51:54Z</time>
      </trkpt>
      <trkpt lat="51.23129765098" lon="4.458062126087">
        <ele>3.6</ele>
        <time>2020-08-10T20:52:29Z</time>
      </trkpt>
      <trkpt lat="51.231287676519" lon="4.458395977164">
        <ele>6.8</ele>
        <time>2020-08-10T20:52:50Z</time>
      </trkpt>
      <trkpt lat="51.23125574148" lon="4.458554059798">
        <ele>6</ele>
        <time>2020-08-10T20:52:57Z</time>
      </trkpt>
      <trkpt lat="51.231188351004" lon="4.458657408625">
        <ele>3.8</ele>
        <time>2020-08-10T20:53:06Z</time>
      </trkpt>
      <trkpt lat="51.23084167562" lon="4.458830243403">
        <ele>0</ele>
        <time>2020-08-10T20:53:42Z</time>
      </trkpt>
      <trkpt lat="51.230401542051" lon="4.458937196447">
        <ele>2.2</ele>
        <time>2020-08-10T20:54:20Z</time>
      </trkpt>
      <trkpt lat="51.230051765364" lon="4.459066696802">
        <ele>0</ele>
        <time>2020-08-10T20:54:53Z</time>
      </trkpt>
      <trkpt lat="51.229614062546" lon="4.45918924018">
        <ele>4.4</ele>
        <time>2020-08-10T20:55:33Z</time>
      </trkpt>
      <trkpt lat="51.229446759822" lon="4.459150180526">
        <ele>1.8</ele>
        <time>2020-08-10T20:55:55Z</time>
      </trkpt>
      <trkpt lat="51.229361012985" lon="4.459201058659">
        <ele>0.2</ele>
        <time>2020-08-10T20:56:06Z</time>
      </trkpt>
      <trkpt lat="51.228910150584" lon="4.459228383653">
        <ele>1.8</ele>
        <time>2020-08-10T20:56:50Z</time>
      </trkpt>
      <trkpt lat="51.228552243454" lon="4.459288314238">
        <ele>3.6</ele>
        <time>2020-08-10T20:57:39Z</time>
      </trkpt>
      <trkpt lat="51.228511172144" lon="4.459232406965">
        <ele>3</ele>
        <time>2020-08-10T20:57:47Z</time>
      </trkpt>
      <trkpt lat="51.228509160488" lon="4.459183289031">
        <ele>3.2</ele>
        <time>2020-08-10T20:57:50Z</time>
      </trkpt>
      <trkpt lat="51.228487283729" lon="4.458802583133">
        <ele>3.4</ele>
        <time>2020-08-10T20:58:13Z</time>
      </trkpt>
      <trkpt lat="51.228704458758" lon="4.458261699126">
        <ele>4.8</ele>
        <time>2020-08-10T20:58:53Z</time>
      </trkpt>
      <trkpt lat="51.228779392944" lon="4.458210401898">
        <ele>7.6</ele>
        <time>2020-08-10T20:59:02Z</time>
      </trkpt>
      <trkpt lat="51.229227908413" lon="4.458049217961">
        <ele>20.4</ele>
        <time>2020-08-10T20:59:43Z</time>
      </trkpt>
      <trkpt lat="51.229553545228" lon="4.457957519975">
        <ele>16.2</ele>
        <time>2020-08-10T21:00:20Z</time>
      </trkpt>
      <trkpt lat="51.229699390288" lon="4.457926590764">
        <ele>14</ele>
        <time>2020-08-10T21:00:33Z</time>
      </trkpt>
    </trkseg>
  </trk>
</gpx>